Time;durP1;ratioP1;P1;durP2;ratioP2;P2;SDS_P1;SDS_P2;PMS_P1;PMS_P2;Temp;Humidity;BMP_temperature;BMP_pressure;BME280_temperature;BME280_humidity;BME280_pressure;Samples;Min_cycle;Max_cycle;Signal;HPM_P1;HPM_P2
2022/04/02 00:00:22;;;;;;;11.10;2.83;;;;;;;1.26;67.23;101334.22;5052563;28;20408;-75
2022/04/02 00:02:48;;;;;;;11.20;3.00;;;;;;;1.28;67.57;101326.25;5052529;28;20094;-75
2022/04/02 00:05:13;;;;;;;12.05;3.55;;;;;;;1.26;66.35;101334.22;5035876;28;20032;-75
2022/04/02 00:07:38;;;;;;;11.15;2.97;;;;;;;1.26;66.87;101320.09;5052200;28;20128;-75
2022/04/02 00:10:05;;;;;;;9.27;3.25;;;;;;;1.25;66.34;101326.31;5053061;28;20060;-75
2022/04/02 00:12:31;;;;;;;10.88;3.17;;;;;;;1.26;67.39;101333.34;5053618;28;20400;-75
2022/04/02 00:14:56;;;;;;;10.85;3.17;;;;;;;1.28;66.81;101332.38;5053527;28;20032;-75
2022/04/02 00:17:22;;;;;;;12.25;3.75;;;;;;;1.28;67.02;101331.53;5052190;28;20075;-75
2022/04/02 00:19:47;;;;;;;12.45;3.63;;;;;;;1.31;66.51;101331.44;5053087;28;20087;-75
2022/04/02 00:22:13;;;;;;;10.25;2.58;;;;;;;1.32;66.61;101341.13;5053641;28;20028;-75
2022/04/02 00:24:38;;;;;;;7.63;2.60;;;;;;;1.31;66.80;101337.59;5053392;28;20055;-75
2022/04/02 00:27:04;;;;;;;12.30;3.08;;;;;;;1.31;66.18;101340.25;5053174;28;20044;-75
2022/04/02 00:29:29;;;;;;;12.02;3.60;;;;;;;1.31;66.38;101339.38;5053302;28;20029;-75
2022/04/02 00:31:54;;;;;;;12.35;3.40;;;;;;;1.31;65.63;101342.03;5051676;28;20024;-75
2022/04/02 00:34:19;;;;;;;11.27;2.83;;;;;;;1.31;66.19;101339.38;5053504;28;20025;-75
2022/04/02 00:36:45;;;;;;;11.52;2.80;;;;;;;1.30;66.40;101338.50;5046812;28;20033;-75
2022/04/02 00:39:10;;;;;;;10.43;3.40;;;;;;;1.31;65.98;101336.75;5044011;28;20029;-75
2022/04/02 00:41:36;;;;;;;10.60;2.63;;;;;;;1.30;66.38;101341.16;5052744;28;20538;-75
2022/04/02 00:44:10;;;;;;;10.98;2.92;;;;;;;1.30;66.35;101338.50;5052732;28;20049;-75
2022/04/02 00:46:37;;;;;;;9.65;3.13;;;;;;;1.30;66.08;101329.69;5052427;28;20060;-75
2022/04/02 00:49:04;;;;;;;11.40;3.00;;;;;;;1.28;66.70;101337.69;5052368;28;20029;-75
2022/04/02 00:51:30;;;;;;;9.80;3.22;;;;;;;1.27;66.31;101340.38;5048370;28;20087;-75
2022/04/02 00:53:55;;;;;;;11.23;3.05;;;;;;;1.24;66.23;101330.72;5051450;28;20025;-75
2022/04/02 00:56:21;;;;;;;8.88;3.35;;;;;;;1.25;66.49;101336.91;5051789;28;20013;-75
2022/04/02 00:58:46;;;;;;;11.15;2.90;;;;;;;1.25;66.19;101328.97;5053013;28;20472;-75
2022/04/02 01:01:12;;;;;;;12.38;3.42;;;;;;;1.25;66.30;101335.13;5051794;28;20039;-75
2022/04/02 01:03:38;;;;;;;10.77;3.13;;;;;;;1.24;66.82;101338.66;5051421;28;20115;-75
2022/04/02 01:06:04;;;;;;;9.75;3.35;;;;;;;1.25;65.87;101332.47;5052027;28;20480;-76
2022/04/02 01:08:29;;;;;;;12.05;3.85;;;;;;;1.24;65.79;101336.03;5052222;28;20017;-76
2022/04/02 01:10:57;;;;;;;8.93;2.88;;;;;;;1.21;66.28;101325.53;5052532;28;20229;-76
2022/04/02 01:13:23;;;;;;;7.97;2.67;;;;;;;1.20;66.44;101329.06;5052718;28;20029;-76
2022/04/02 01:15:48;;;;;;;12.57;3.65;;;;;;;1.21;66.12;101333.47;5052201;28;20032;-76
2022/04/02 01:18:13;;;;;;;10.32;2.75;;;;;;;1.21;66.25;101338.75;5052495;28;20036;-76
2022/04/02 01:20:39;;;;;;;12.00;2.97;;;;;;;1.20;65.89;101340.53;5052319;28;20037;-76
2022/04/02 01:23:04;;;;;;;15.00;3.50;;;;;;;1.23;66.20;101342.25;5052302;28;20082;-76
2022/04/02 01:25:32;;;;;;;13.15;3.22;;;;;;;1.21;66.20;101333.47;5050723;28;20078;-76
2022/04/02 01:27:59;;;;;;;12.52;3.35;;;;;;;1.21;65.93;101336.97;5052554;28;20025;-76
2022/04/02 01:30:25;;;;;;;10.30;3.08;;;;;;;1.21;65.74;101315.78;5048713;28;20091;-76
2022/04/02 01:32:50;;;;;;;9.38;2.83;;;;;;;1.22;65.49;101335.22;5052029;28;20112;-76
2022/04/02 01:35:15;;;;;;;8.77;2.60;;;;;;;1.21;64.76;101339.63;5052018;28;20110;-76
2022/04/02 01:37:40;;;;;;;15.18;3.63;;;;;;;1.19;65.08;101336.16;5051765;28;20025;-76
2022/04/02 01:40:07;;;;;;;8.32;2.70;;;;;;;1.17;65.29;101343.28;5051471;28;20092;-76
2022/04/02 01:42:33;;;;;;;10.85;3.17;;;;;;;1.17;65.20;101335.34;5051647;28;20029;-76
2022/04/02 01:44:59;;;;;;;12.85;2.95;;;;;;;1.17;65.58;101326.50;5051769;28;20094;-76
2022/04/02 01:47:25;;;;;;;10.05;2.95;;;;;;;1.16;64.94;101333.59;5051953;28;20021;-76
2022/04/02 01:49:50;;;;;;;8.82;2.38;;;;;;;1.17;65.71;101331.81;5051592;28;20112;-76
2022/04/02 01:52:17;;;;;;;8.70;3.10;;;;;;;1.16;65.09;101335.38;5048262;28;20411;-76
2022/04/02 01:54:44;;;;;;;13.27;3.10;;;;;;;1.15;65.25;101341.56;5052041;28;20102;-76
2022/04/02 01:57:10;;;;;;;8.95;2.70;;;;;;;1.15;65.71;101346.88;5051491;28;20067;-76
2022/04/02 01:59:35;;;;;;;8.23;2.60;;;;;;;1.15;65.45;101342.44;5052007;28;20729;-76
2022/04/02 02:02:01;;;;;;;5.93;2.35;;;;;;;1.16;65.65;101345.97;5051400;28;20064;-76
2022/04/02 02:04:27;;;;;;;9.95;2.83;;;;;;;1.15;65.55;101346.88;5050161;28;20036;-76
2022/04/02 02:06:53;;;;;;;11.55;3.25;;;;;;;1.16;65.82;101353.91;5050187;28;20135;-76
2022/04/02 02:09:19;;;;;;;10.90;2.90;;;;;;;1.16;65.76;101345.97;5049827;28;20124;-76
2022/04/02 02:11:44;;;;;;;16.25;3.60;;;;;;;1.13;65.19;101349.56;5049852;28;20362;-76
2022/04/02 02:14:09;;;;;;;7.60;2.63;;;;;;;1.11;65.87;101347.84;5051740;28;20036;-76
2022/04/02 02:16:35;;;;;;;11.32;3.40;;;;;;;1.07;65.88;101346.19;5051438;28;20568;-76
2022/04/02 02:19:00;;;;;;;10.88;3.67;;;;;;;1.04;66.05;101350.66;5051202;28;20035;-76
2022/04/02 02:21:26;;;;;;;8.38;2.67;;;;;;;1.04;66.12;101355.97;5049673;28;20044;-76
2022/04/02 02:23:51;;;;;;;9.55;2.83;;;;;;;1.02;65.83;101354.25;5048549;28;20071;-76
2022/04/02 02:26:17;;;;;;;11.50;3.30;;;;;;;1.03;65.72;101356.84;5051042;28;20033;-76
2022/04/02 02:28:43;;;;;;;12.43;3.13;;;;;;;1.00;65.72;101354.28;5051451;28;20144;-76
2022/04/02 02:31:08;;;;;;;10.73;3.10;;;;;;;0.97;65.63;101351.72;5051175;28;20472;-76
2022/04/02 02:36:17;;;;;;;10.38;3.08;;;;;;;0.92;65.95;101361.53;5050894;28;20043;-76
2022/04/02 02:38:43;;;;;;;9.57;3.28;;;;;;;0.89;65.92;101369.56;5049894;28;20021;-76
2022/04/02 02:41:10;;;;;;;10.45;2.97;;;;;;;0.87;65.76;101360.81;5050792;28;20477;-76
2022/04/02 02:43:35;;;;;;;10.80;3.45;;;;;;;0.87;65.61;101366.09;5050579;28;20388;-76
2022/04/02 02:46:00;;;;;;;9.85;3.08;;;;;;;0.87;65.86;101374.03;5050820;28;20044;-76
2022/04/02 02:48:26;;;;;;;11.70;3.00;;;;;;;0.84;66.04;101374.97;5050889;28;20029;-76
2022/04/02 02:50:51;;;;;;;8.38;2.80;;;;;;;0.83;65.60;101372.38;5051020;28;20491;-76
2022/04/02 02:53:16;;;;;;;12.85;2.58;;;;;;;0.80;65.61;101378.59;5050992;28;20036;-77
2022/04/02 02:55:42;;;;;;;11.85;3.63;;;;;;;0.80;65.31;101370.66;5050454;28;20048;-76
2022/04/02 02:58:08;;;;;;;10.07;3.35;;;;;;;0.82;66.01;101373.25;5050830;28;20523;-76
2022/04/02 03:00:33;;;;;;;13.38;3.08;;;;;;;0.81;65.89;101374.19;5050960;28;20526;-76
2022/04/02 03:02:58;;;;;;;9.43;2.85;;;;;;;0.78;65.72;101379.56;5042806;28;20021;-76
2022/04/02 03:05:24;;;;;;;13.73;3.30;;;;;;;0.79;66.26;101381.28;5049297;28;20025;-75
2022/04/02 03:07:49;;;;;;;8.32;2.53;;;;;;;0.77;65.75;101383.97;5049305;28;20535;-76
2022/04/02 03:10:23;;;;;;;8.93;2.75;;;;;;;0.79;65.84;101381.28;5049550;28;20088;-76
2022/04/02 03:12:50;;;;;;;8.40;2.10;;;;;;;0.78;65.93;101379.56;5048401;28;20025;-76
2022/04/02 03:15:16;;;;;;;13.18;3.60;;;;;;;0.79;66.46;101375.97;5049845;28;20029;-76
2022/04/02 03:17:43;;;;;;;10.38;3.10;;;;;;;0.81;65.99;101384.78;5064518;28;20120;-76
2022/04/02 03:20:11;;;;;;;10.18;2.47;;;;;;;0.81;65.80;101380.34;5049453;28;20035;-76
2022/04/02 03:22:39;;;;;;;8.57;2.28;;;;;;;0.84;66.04;101382.03;5049732;28;20119;-76
2022/04/02 03:25:08;;;;;;;13.80;3.05;;;;;;;0.82;65.99;101376.78;5053174;28;20568;-76
2022/04/02 03:27:33;;;;;;;10.20;2.58;;;;;;;0.82;65.79;101375.91;5053392;28;20021;-76
2022/04/02 03:29:58;;;;;;;9.68;2.78;;;;;;;0.80;66.22;101381.25;5051397;28;20028;-76
2022/04/02 03:32:23;;;;;;;10.27;3.15;;;;;;;0.81;66.60;101385.63;5053226;28;20029;-76
2022/04/02 03:34:49;;;;;;;13.20;3.15;;;;;;;0.81;66.79;101377.69;5052987;28;20392;-76
2022/04/02 03:37:14;;;;;;;11.38;3.10;;;;;;;0.83;67.03;101375.00;5051425;28;20050;-76
2022/04/02 03:39:40;;;;;;;11.10;3.10;;;;;;;0.82;66.46;101376.78;5051561;28;20025;-76
2022/04/02 03:42:06;;;;;;;10.63;3.15;;;;;;;0.82;67.19;101375.91;5053458;28;20032;-76
2022/04/02 03:44:31;;;;;;;9.88;2.90;;;;;;;0.81;67.15;101375.03;5052995;28;20506;-76
2022/04/02 03:47:08;;;;;;;9.55;3.03;;;;;;;0.83;67.03;101373.22;5051113;28;20081;-76
2022/04/02 03:49:47;;;;;;;12.68;3.50;;;;;;;0.83;66.42;101378.50;5052817;28;20025;-76
2022/04/02 03:52:13;;;;;;;14.48;3.90;;;;;;;0.80;66.63;101390.97;5052737;28;20055;-76
2022/04/02 03:54:39;;;;;;;12.18;3.03;;;;;;;0.78;66.57;101390.16;5052925;28;20025;-76
2022/04/02 03:57:09;;;;;;;12.57;3.40;;;;;;;0.75;66.58;101396.38;5052838;28;20132;-76
2022/04/02 03:59:35;;;;;;;8.80;2.80;;;;;;;0.73;66.77;101399.94;5052817;28;20036;-76
2022/04/02 04:02:00;;;;;;;12.80;3.83;;;;;;;0.71;66.15;101397.34;5053191;28;20465;-76
2022/04/02 04:04:26;;;;;;;9.07;2.95;;;;;;;0.68;66.72;101392.97;5052478;28;20435;-76
2022/04/02 04:06:52;;;;;;;5.26;2.52;;;;;;;0.66;66.05;101394.81;5014623;28;1087560;-75
2022/04/02 04:09:18;;;;;;;10.57;3.00;;;;;;;0.66;66.20;101402.75;5053748;28;20470;-76
2022/04/02 04:11:44;;;;;;;10.45;2.78;;;;;;;0.67;66.20;101404.50;5053486;28;20033;-76
2022/04/02 04:14:09;;;;;;;8.77;2.72;;;;;;;0.66;66.61;101402.75;5053819;28;20508;-76
2022/04/02 04:16:36;;;;;;;7.68;2.22;;;;;;;0.64;66.65;101404.53;5053920;28;20024;-76
2022/04/02 04:19:02;;;;;;;8.77;3.22;;;;;;;0.64;66.26;101412.47;5051996;28;20573;-76
2022/04/02 04:21:27;;;;;;;13.43;3.30;;;;;;;0.62;66.31;101411.66;5053508;28;20020;-76
2022/04/02 04:23:52;;;;;;;9.77;3.33;;;;;;;0.61;66.26;101412.53;5052000;28;20036;-76
2022/04/02 04:26:18;;;;;;;9.50;3.13;;;;;;;0.60;66.21;101412.59;5052041;28;20498;-76
2022/04/02 04:28:43;;;;;;;15.00;3.50;;;;;;;0.58;66.33;101415.25;5052312;28;20025;-76
2022/04/02 04:31:09;;;;;;;9.55;2.53;;;;;;;0.56;66.19;101409.16;5042391;28;20393;-76
2022/04/02 04:33:35;;;;;;;9.70;3.15;;;;;;;0.55;66.75;101414.47;5050640;28;20100;-76
2022/04/02 04:36:00;;;;;;;12.18;2.92;;;;;;;0.54;66.66;101410.94;5052797;28;20053;-76
2022/04/02 04:38:26;;;;;;;10.63;2.85;;;;;;;0.50;66.44;101407.50;5052119;28;20118;-76
2022/04/02 04:40:51;;;;;;;14.55;2.97;;;;;;;0.50;66.78;101420.72;5052600;28;20016;-76
2022/04/02 04:43:16;;;;;;;10.25;3.15;;;;;;;0.49;67.48;101416.34;5051654;28;20078;-76
2022/04/02 04:45:41;;;;;;;11.65;3.60;;;;;;;0.50;67.05;101422.53;5051215;28;20024;-76
2022/04/02 04:48:07;;;;;;;6.97;2.47;;;;;;;0.51;66.72;101424.25;5051509;28;20347;-76
2022/04/02 04:50:34;;;;;;;11.27;2.97;;;;;;;0.51;67.05;101432.16;5052182;28;20037;-76
2022/04/02 04:53:00;;;;;;;12.93;3.22;;;;;;;0.49;66.85;101436.63;5051617;28;20056;-76
2022/04/02 04:55:25;;;;;;;7.80;2.78;;;;;;;0.49;67.08;101444.56;5052264;28;20048;-76
2022/04/02 04:57:50;;;;;;;11.50;3.25;;;;;;;0.48;66.83;101443.72;5051377;28;20112;-76
2022/04/02 05:00:16;;;;;;;7.40;2.53;;;;;;;0.49;66.97;101447.22;5051463;28;20028;-76
2022/04/02 05:02:47;;;;;;;8.40;3.30;;;;;;;0.46;66.84;101453.44;5052748;28;20033;-76
2022/04/02 05:05:13;;;;;;;9.68;2.45;;;;;;;0.44;66.56;101452.63;5052164;28;20067;-76
2022/04/02 05:07:42;;;;;;;7.80;2.55;;;;;;;0.44;66.39;101447.31;5050769;28;20496;-76
2022/04/02 05:10:09;;;;;;;7.45;2.40;;;;;;;0.45;66.39;101454.31;5052734;28;20041;-76
2022/04/02 05:12:38;;;;;;;12.95;3.35;;;;;;;0.47;66.17;101459.59;5049684;28;20032;-76
2022/04/02 05:15:05;;;;;;;11.55;3.38;;;;;;;0.47;65.09;101459.59;5051534;28;20056;-76
2022/04/02 05:17:35;;;;;;;10.73;2.67;;;;;;;0.48;65.38;101464.88;5049440;28;20484;-76
2022/04/02 05:20:01;;;;;;;6.82;2.40;;;;;;;0.50;65.69;101467.47;5052699;28;20025;-76
2022/04/02 05:22:26;;;;;;;8.00;2.42;;;;;;;0.50;65.74;101475.41;5052413;28;20044;-76
2022/04/02 05:24:51;;;;;;;18.20;3.45;;;;;;;0.50;65.81;101464.84;5034751;28;20033;-76
2022/04/02 05:27:17;;;;;;;10.23;2.90;;;;;;;0.49;65.49;101476.31;5052003;28;20116;-76
2022/04/02 05:29:43;;;;;;;7.30;2.42;;;;;;;0.50;65.96;101478.91;5051848;28;20040;-76
2022/04/02 05:32:09;;;;;;;9.15;2.88;;;;;;;0.50;65.41;101483.34;5051266;28;20063;-76
2022/04/02 05:34:34;;;;;;;9.10;2.80;;;;;;;0.50;65.54;101481.56;5050651;28;20048;-76
2022/04/02 05:36:59;;;;;;;10.30;2.88;;;;;;;0.51;65.80;101490.34;5050611;28;20035;-76
2022/04/02 05:39:25;;;;;;;8.32;2.70;;;;;;;0.53;65.51;101491.22;5052257;28;20029;-76
2022/04/02 05:41:51;;;;;;;8.88;2.60;;;;;;;0.54;65.85;101495.56;5050020;28;20029;-76
2022/04/02 05:44:17;;;;;;;7.43;2.42;;;;;;;0.55;65.14;101505.25;5049580;28;20435;-76
2022/04/02 05:46:42;;;;;;;7.70;2.72;;;;;;;0.56;66.16;101501.72;5049037;28;20033;-76
2022/04/02 05:49:07;;;;;;;9.68;2.70;;;;;;;0.60;65.96;101513.09;5052141;28;20029;-76
2022/04/02 05:51:32;;;;;;;7.60;2.38;;;;;;;0.60;65.93;101513.09;5051534;28;20114;-76
2022/04/02 05:53:59;;;;;;;12.65;3.75;;;;;;;0.59;65.95;101517.53;5049758;28;20049;-76
2022/04/02 05:56:26;;;;;;;8.75;2.63;;;;;;;0.59;66.48;101509.59;5050376;28;20041;-76
2022/04/02 05:58:52;;;;;;;10.55;3.10;;;;;;;0.60;66.22;101516.63;5050547;28;20025;-76
2022/04/02 06:01:17;;;;;;;8.93;2.60;;;;;;;0.62;66.44;101522.75;5050188;28;20025;-76
2022/04/02 06:03:43;;;;;;;12.10;3.63;;;;;;;0.63;67.03;101527.16;5051545;28;20033;-76
2022/04/02 06:06:10;;;;;;;10.32;3.00;;;;;;;0.65;67.01;101527.97;5051077;28;20128;-76
2022/04/02 06:08:35;;;;;;;15.32;3.65;;;;;;;0.67;66.77;101527.94;5051016;28;20045;-76
2022/04/02 06:11:01;;;;;;;13.38;3.40;;;;;;;0.68;66.91;101530.56;5039115;28;20505;-76
2022/04/02 06:13:27;;;;;;;11.20;3.22;;;;;;;0.72;66.92;101535.78;5050761;28;20108;-76
2022/04/02 06:15:53;;;;;;;11.23;3.03;;;;;;;0.73;66.95;101534.88;5051336;28;20041;-76
2022/04/02 06:18:18;;;;;;;11.25;3.00;;;;;;;0.75;66.58;101531.31;5049954;28;20407;-76
2022/04/02 06:20:48;;;;;;;11.85;3.83;;;;;;;0.77;67.14;101533.91;5051483;28;20033;-76
2022/04/02 06:23:13;;;;;;;;;;;;;;;0.83;66.76;101537.28;5050404;28;20033;-76
2022/04/02 06:25:39;;;;;;;13.30;3.65;;;;;;;0.82;66.01;101538.22;5050145;28;19919;-76
2022/04/02 06:28:05;;;;;;;11.77;2.75;;;;;;;0.83;66.57;101542.56;5051593;28;20094;-76
2022/04/02 06:30:30;;;;;;;10.55;2.90;;;;;;;0.87;67.51;101544.25;5050479;28;20400;-76
2022/04/02 06:32:55;;;;;;;9.98;2.45;;;;;;;0.89;66.54;101552.16;5039783;28;20029;-76
2022/04/02 06:35:21;;;;;;;7.38;2.38;;;;;;;0.92;67.55;101556.53;5043273;28;20036;-76
2022/04/02 06:37:48;;;;;;;16.75;3.97;;;;;;;0.95;66.83;101565.28;5050636;28;20039;-76
2022/04/02 06:40:14;;;;;;;8.50;2.88;;;;;;;0.96;67.06;101558.22;5050824;28;20033;-76
2022/04/02 06:42:39;;;;;;;10.30;2.75;;;;;;;0.98;66.10;101564.31;5051102;28;20124;-76
2022/04/02 06:45:05;;;;;;;10.55;3.03;;;;;;;1.01;66.47;101561.59;5051015;28;20477;-76
2022/04/02 06:47:32;;;;;;;7.68;2.75;;;;;;;1.03;67.29;101560.66;5048377;28;20086;-76
2022/04/02 06:49:58;;;;;;;10.65;3.20;;;;;;;1.06;66.32;101565.03;5041759;28;20033;-77
2022/04/02 06:52:24;;;;;;;9.57;2.80;;;;;;;1.09;66.29;101574.69;5051093;28;20090;-78
2022/04/02 06:54:49;;;;;;;14.40;3.28;;;;;;;1.12;67.23;101577.28;5050906;28;20523;-76
2022/04/02 06:57:21;;;;;;;12.90;3.70;;;;;;;1.17;67.08;101578.91;5050508;28;20059;-76
2022/04/02 06:59:47;;;;;;;14.32;3.83;;;;;;;1.19;66.22;101581.53;5048694;28;20128;-76
2022/04/02 07:02:13;;;;;;;9.85;2.75;;;;;;;1.23;66.53;101588.50;5051001;28;20033;-76
2022/04/02 07:04:38;;;;;;;10.38;2.97;;;;;;;1.26;66.75;101593.72;5044744;28;20578;-76
2022/04/02 07:07:04;;;;;;;14.68;3.33;;;;;;;1.30;65.97;101590.06;5036958;28;20108;-75
2022/04/02 07:09:29;;;;;;;9.45;3.00;;;;;;;1.35;66.69;101595.28;5039497;28;20126;-75
2022/04/02 07:11:55;;;;;;;9.90;3.30;;;;;;;1.38;66.23;101593.44;5037946;28;20503;-76
2022/04/02 07:14:21;;;;;;;9.98;3.25;;;;;;;1.41;66.43;101597.78;5037783;28;20028;-76
2022/04/02 07:16:46;;;;;;;13.23;3.05;;;;;;;1.43;65.84;101605.69;5039541;28;20399;-76
2022/04/02 07:19:13;;;;;;;10.02;2.88;;;;;;;1.45;65.68;101603.88;5038974;28;20045;-76
2022/04/02 07:21:41;;;;;;;13.00;3.13;;;;;;;1.49;65.98;101617.00;5039328;28;20124;-76
2022/04/02 07:24:07;;;;;;;9.13;3.40;;;;;;;1.53;66.98;101608.09;5038372;28;20476;-76
2022/04/02 07:26:32;;;;;;;18.15;3.80;;;;;;;1.59;66.51;101612.38;5039443;28;20029;-76
2022/04/02 07:28:59;;;;;;;9.77;2.90;;;;;;;1.63;66.53;101614.06;5039922;28;20033;-76
2022/04/02 07:31:25;;;;;;;10.70;2.97;;;;;;;1.70;66.34;101622.75;5039361;28;20121;-76
2022/04/02 07:33:50;;;;;;;8.52;3.35;;;;;;;1.74;66.22;101622.63;5036658;28;20037;-76
2022/04/02 07:36:48;;;;;;;10.13;2.95;;;;;;;1.80;66.91;101623.38;5032060;28;20036;-77
2022/04/02 07:39:35;;;;;;;9.35;3.15;;;;;;;1.83;65.71;101631.25;5038830;28;20037;-76
2022/04/02 07:42:22;;;;;;;8.35;3.28;;;;;;;1.86;65.59;101626.75;4991490;28;20086;-76
2022/04/02 07:44:56;;;;;;;8.32;2.92;;;;;;;1.91;66.36;101637.25;5037552;28;20021;-76
2022/04/02 07:47:28;;;;;;;9.98;2.88;;;;;;;1.95;64.42;101646.88;5039374;28;20078;-76
2022/04/02 07:49:58;;;;;;;13.93;3.67;;;;;;;2.00;64.90;101647.59;5039139;28;20033;-76
2022/04/02 07:52:24;;;;;;;14.77;3.80;;;;;;;2.05;65.37;101643.09;5036724;28;20033;-77
2022/04/02 07:54:54;;;;;;;11.35;3.38;;;;;;;2.09;64.54;101641.22;5039238;28;20846;-77
2022/04/02 07:57:19;;;;;;;13.70;3.42;;;;;;;2.14;64.44;101643.75;5037995;28;20063;-77
2022/04/02 07:59:50;;;;;;;12.93;3.22;;;;;;;2.20;65.14;101648.91;5039614;28;21014;-77
2022/04/02 08:05:02;;;;;;;14.55;3.97;;;;;;;2.32;65.12;101653.03;5048620;28;20036;-76
2022/04/02 08:07:29;;;;;;;13.68;3.33;;;;;;;2.38;65.26;101656.38;5048445;28;20073;-77
2022/04/02 08:09:56;;;;;;;11.13;3.10;;;;;;;2.41;64.28;101650.13;5049898;28;20047;-77
2022/04/02 08:12:23;;;;;;;13.73;3.85;;;;;;;2.43;63.51;101657.13;5053588;28;20028;-75
2022/04/02 08:14:50;;;;;;;12.63;4.13;;;;;;;2.41;63.33;101645.69;5051914;28;20025;-75
2022/04/02 08:17:15;;;;;;;12.55;3.55;;;;;;;2.40;63.49;101659.88;5053968;28;20025;-75
2022/04/02 08:19:41;;;;;;;15.13;4.43;;;;;;;2.39;63.26;101651.97;5052181;28;20032;-75
2022/04/02 08:22:07;;;;;;;13.55;3.83;;;;;;;2.39;64.66;101651.97;5052019;28;20408;-75
2022/04/02 08:24:32;;;;;;;14.63;3.58;;;;;;;2.40;64.30;101659.88;5053558;28;20032;-75
2022/04/02 08:27:03;;;;;;;10.10;3.20;;;;;;;2.41;64.59;101658.94;5051542;28;20024;-75
2022/04/02 08:29:41;;;;;;;15.02;3.88;;;;;;;2.43;63.96;101667.75;5052267;28;20064;-75
2022/04/02 08:32:41;;;;;;;14.18;3.95;;;;;;;2.48;64.17;101666.75;5052839;28;20029;-74
2022/04/02 08:35:08;;;;;;;14.20;4.07;;;;;;;2.52;65.25;101671.94;5044523;28;20031;-75
2022/04/02 08:37:51;;;;;;;10.95;3.63;;;;;;;2.56;63.89;101667.41;5053558;28;20033;-75
2022/04/02 08:40:42;;;;;;;13.27;3.78;;;;;;;2.63;64.06;101671.66;5053402;28;20025;-74
2022/04/02 08:43:16;;;;;;;12.25;3.67;;;;;;;2.68;63.66;101677.72;5051430;28;20076;-74
2022/04/02 08:45:57;;;;;;;14.40;3.63;;;;;;;2.70;63.42;101683.84;5050028;28;20063;-75
2022/04/02 08:48:25;;;;;;;12.15;3.63;;;;;;;2.71;62.14;101690.00;5051491;28;20128;-74
2022/04/02 08:51:22;;;;;;;12.52;3.95;;;;;;;2.75;63.09;101697.88;5052658;28;20029;-76
2022/04/02 08:53:52;;;;;;;13.32;4.25;;;;;;;2.75;62.77;101687.25;5033972;28;20443;-76
2022/04/02 08:56:22;;;;;;;14.35;3.80;;;;;;;2.77;61.76;101687.22;5047857;28;20028;-77
2022/04/02 08:59:04;;;;;;;14.32;4.55;;;;;;;2.80;63.80;101693.28;5052995;28;20025;-77
2022/04/02 09:01:54;;;;;;;14.35;4.80;;;;;;;2.89;64.86;101697.47;5051943;28;20438;-76
2022/04/02 09:04:25;;;;;;;;;;;;;;;2.97;63.95;101694.59;5051186;28;20039;-76
2022/04/02 09:07:15;;;;;;;15.55;4.18;;;;;;;2.98;62.60;101696.34;5051169;28;19999;-77
2022/04/02 09:10:19;;;;;;;10.75;3.58;;;;;;;2.99;63.72;101703.41;5035662;28;20064;-75
2022/04/02 09:13:21;;;;;;;12.05;3.78;;;;;;;3.03;64.08;101717.47;5037044;28;20067;-75
2022/04/02 09:16:00;;;;;;;13.10;4.20;;;;;;;3.05;62.80;101708.56;5052556;28;20041;-75
2022/04/02 09:19:22;;;;;;;14.93;4.35;;;;;;;3.07;62.95;101714.69;5051021;28;20096;-76
2022/04/02 09:22:05;;;;;;;10.07;3.45;;;;;;;3.06;63.17;101714.72;4988630;28;20120;-74
2022/04/02 09:25:07;;;;;;;12.43;3.88;;;;;;;3.10;62.64;101719.91;4989242;28;20058;-76
2022/04/02 09:27:38;;;;;;;15.68;4.22;;;;;;;3.11;63.60;101718.13;4989989;28;20042;-76
2022/04/02 09:30:11;;;;;;;11.35;3.67;;;;;;;3.09;63.17;101722.59;4991048;28;20030;-75
2022/04/02 09:32:43;;;;;;;12.38;4.10;;;;;;;3.10;63.52;101725.22;4990854;28;20069;-75
2022/04/02 09:35:40;;;;;;;13.50;4.10;;;;;;;3.15;62.63;101723.31;4990388;28;20053;-75
2022/04/02 09:38:37;;;;;;;14.10;4.30;;;;;;;3.18;62.46;101725.03;4990724;28;20455;-75
2022/04/02 09:41:24;;;;;;;14.25;4.10;;;;;;;3.21;61.96;101726.72;4974377;28;20022;-75
2022/04/02 09:44:05;;;;;;;19.08;4.93;;;;;;;3.26;62.73;101719.47;4990704;28;20096;-75
2022/04/02 09:47:14;;;;;;;13.02;4.20;;;;;;;3.29;61.43;101728.25;4989463;28;20050;-75
2022/04/02 09:50:01;;;;;;;13.68;4.03;;;;;;;3.31;62.11;101734.38;4987629;28;20074;-75
2022/04/02 09:52:26;;;;;;;14.35;4.50;;;;;;;3.34;61.05;101733.44;5010889;28;20041;-75
2022/04/02 09:55:13;;;;;;;12.15;4.00;;;;;;;3.43;62.22;101725.19;5044129;28;20369;-75
2022/04/02 09:57:44;;;;;;;13.05;3.90;;;;;;;3.52;60.78;101736.47;5050347;28;20028;-75
2022/04/02 10:00:16;;;;;;;14.15;4.55;;;;;;;3.55;59.98;101728.41;5052172;28;20098;-74
2022/04/02 10:03:00;;;;;;;14.95;4.82;;;;;;;3.60;60.60;101718.47;5051311;28;20059;-75
2022/04/02 10:05:34;;;;;;;15.90;5.13;;;;;;;3.63;59.98;101729.91;5049833;28;20043;-75
2022/04/02 10:08:09;;;;;;;12.70;4.25;;;;;;;3.66;60.14;101723.59;5064132;28;21605;-75
2022/04/02 10:10:34;;;;;;;13.07;4.03;;;;;;;3.73;60.82;101719.84;5071757;28;20086;-74
2022/04/02 10:13:02;;;;;;;13.05;3.83;;;;;;;3.81;58.65;101715.16;5057784;28;20028;-75
2022/04/02 10:15:30;;;;;;;16.35;4.65;;;;;;;3.92;59.45;101716.63;5051793;28;20035;-76
2022/04/02 10:18:01;;;;;;;13.05;4.53;;;;;;;3.91;56.20;101720.19;5050031;28;20115;-76
2022/04/02 10:20:31;;;;;;;13.48;4.28;;;;;;;3.89;58.25;101708.75;5044036;28;20124;-76
2022/04/02 10:23:12;;;;;;;12.93;4.00;;;;;;;3.92;58.86;101713.97;5045290;28;20071;-76
2022/04/02 10:25:57;;;;;;;17.52;4.47;;;;;;;3.88;57.32;101709.66;5048653;28;20050;-76
2022/04/02 10:28:28;;;;;;;11.32;3.88;;;;;;;3.80;57.64;101721.41;5050118;28;20043;-76
2022/04/02 10:30:57;;;;;;;13.25;4.03;;;;;;;3.76;58.67;101719.75;5048154;28;20041;-76
2022/04/02 10:33:28;;;;;;;14.35;4.28;;;;;;;3.71;58.08;101713.72;5048009;28;20450;-75
2022/04/02 10:35:55;;;;;;;12.02;4.00;;;;;;;3.65;59.68;101705.94;5043660;28;20025;-75
2022/04/02 10:38:33;;;;;;;11.23;3.90;;;;;;;3.59;61.02;101709.66;5045543;28;20033;-75
2022/04/02 10:41:09;;;;;;;11.05;3.60;;;;;;;3.52;60.27;101709.88;5045156;28;20024;-75
2022/04/02 10:43:43;;;;;;;11.38;3.75;;;;;;;3.46;62.52;101717.09;5046845;28;20094;-75
2022/04/02 10:46:08;;;;;;;13.98;4.03;;;;;;;3.43;59.58;101719.00;5040020;28;20055;-75
2022/04/02 10:48:41;;;;;;;11.10;3.85;;;;;;;3.43;61.41;101724.31;5046096;28;20021;-75
2022/04/02 10:51:08;;;;;;;12.38;4.20;;;;;;;3.44;60.25;101718.94;5039555;28;20178;-75
2022/04/02 10:53:38;;;;;;;15.23;4.05;;;;;;;3.46;59.50;101714.44;5031696;28;20028;-75
2022/04/02 10:56:09;;;;;;;16.42;4.57;;;;;;;3.49;59.29;101722.31;5041189;28;20086;-75
2022/04/02 10:58:37;;;;;;;10.95;3.70;;;;;;;3.50;59.20;101717.91;5046357;28;20032;-75
2022/04/02 11:01:06;;;;;;;13.60;4.47;;;;;;;3.49;58.93;101719.66;5048651;28;20013;-75
2022/04/02 11:03:39;;;;;;;12.10;3.60;;;;;;;3.46;59.08;101722.44;5048079;28;20047;-75
2022/04/02 11:06:09;;;;;;;16.90;3.92;;;;;;;3.39;57.89;101731.50;5049302;28;20020;-75
2022/04/02 11:08:34;;;;;;;17.48;4.47;;;;;;;3.36;59.89;101731.59;5047970;28;20056;-75
2022/04/02 11:11:16;;;;;;;13.52;3.63;;;;;;;3.32;60.83;101736.13;5046744;28;20029;-75
2022/04/02 11:13:43;;;;;;;14.90;4.32;;;;;;;3.23;61.82;101731.06;5046365;28;20104;-76
2022/04/02 11:16:16;;;;;;;13.95;4.35;;;;;;;3.21;62.47;101726.72;5047537;28;20369;-75
2022/04/02 11:19:53;;;;;;;15.25;4.53;;;;;;;3.25;63.28;101715.06;5050057;28;20454;-75
2022/04/02 11:21:32;;;;;;;16.55;5.45;;;;;;;3.37;63.35;101714.72;5046049;28;20091;-76
2022/04/02 11:24:04;;;;;;;13.98;4.75;;;;;;;3.47;62.39;101720.63;5043050;28;20029;-75
2022/04/02 11:26:35;;;;;;;12.32;4.38;;;;;;;3.56;60.09;101711.50;5040933;28;20039;-76
2022/04/02 11:29:03;;;;;;;18.42;5.15;;;;;;;3.64;59.91;101712.16;5043106;28;20025;-76
2022/04/02 11:31:29;;;;;;;12.60;4.00;;;;;;;3.71;59.17;101710.19;5043960;28;20082;-75
2022/04/02 11:33:57;;;;;;;15.38;4.93;;;;;;;3.87;61.52;101710.59;5041137;28;20056;-75
2022/04/02 11:36:39;;;;;;;13.57;4.55;;;;;;;4.00;60.22;101715.47;5045366;28;20087;-75
2022/04/02 11:39:11;;;;;;;13.30;3.90;;;;;;;4.11;57.59;101714.25;5042938;28;20037;-75
2022/04/02 11:41:39;;;;;;;13.85;4.45;;;;;;;4.16;54.58;101710.53;5040177;28;20022;-75